Time;durP1;ratioP1;P1;durP2;ratioP2;P2;SDS_P1;SDS_P2;PMS_P1;PMS_P2;Temp;Humidity;BMP_temperature;BMP_pressure;BME280_temperature;BME280_humidity;BME280_pressure;Samples;Min_cycle;Max_cycle;Signal;HPM_P1;HPM_P2
2023/06/05 00:00:56;;;;;;;3.65;2.22;;;;;;;;;;4955196;28;20090;-75
2023/06/05 00:03:21;;;;;;;7.13;2.70;;;;;;;;;;4954386;29;20162;-75
2023/06/05 00:05:47;;;;;;;7.20;2.80;;;;;;;;;;4937877;29;20035;-75
2023/06/05 00:08:12;;;;;;;3.22;2.08;;;;;;;;;;4955553;28;20031;-76
2023/06/05 00:10:38;;;;;;;6.43;2.22;;;;;;;;;;4953920;29;20482;-75
2023/06/05 00:13:03;;;;;;;3.60;2.00;;;;;;;;;;4954239;29;20111;-75
2023/06/05 00:15:31;;;;;;;4.50;2.00;;;;;;;;;;4953263;29;20123;-75
2023/06/05 00:17:56;;;;;;;4.22;2.10;;;;;;;;;;4954210;28;20023;-75
2023/06/05 00:20:22;;;;;;;4.97;2.60;;;;;;;;;;4952496;29;20038;-74
2023/06/05 00:22:48;;;;;;;3.70;1.88;;;;;;;;;;4953919;28;20023;-75
2023/06/05 00:25:14;;;;;;;5.35;2.28;;;;;;;;;;4954232;28;20031;-74
2023/06/05 00:27:40;;;;;;;3.35;1.77;;;;;;;;;;4952466;29;20372;-74
2023/06/05 00:30:09;;;;;;;3.45;2.10;;;;;;;;;;4952747;29;20035;-75
2023/06/05 00:32:35;;;;;;;2.75;2.28;;;;;;;;;;4953673;28;20114;-75
2023/06/05 00:35:01;;;;;;;3.15;2.60;;;;;;;;;;4953993;29;20678;-75
2023/06/05 00:37:27;;;;;;;3.25;2.28;;;;;;;;;;4953679;28;20127;-75
2023/06/05 00:39:53;;;;;;;5.00;2.33;;;;;;;;;;4953581;28;20100;-75
2023/06/05 00:42:18;;;;;;;2.88;1.98;;;;;;;;;;4952700;29;20058;-75
2023/06/05 00:44:43;;;;;;;3.97;2.10;;;;;;;;;;4953893;28;20066;-76
2023/06/05 00:47:09;;;;;;;3.00;2.00;;;;;;;;;;4952899;29;20081;-74
2023/06/05 00:49:36;;;;;;;12.90;3.65;;;;;;;;;;4953169;28;20043;-74
2023/06/05 00:52:01;;;;;;;5.38;2.03;;;;;;;;;;4953706;28;20507;-75
2023/06/05 00:54:27;;;;;;;4.75;2.10;;;;;;;;;;4952232;29;20063;-75
2023/06/05 00:56:53;;;;;;;4.47;2.17;;;;;;;;;;4951940;29;20507;-75
2023/06/05 00:59:20;;;;;;;3.78;2.38;;;;;;;;;;4979052;28;20054;-74
2023/06/05 01:01:47;;;;;;;4.28;2.40;;;;;;;;;;4990946;28;20037;-75
2023/06/05 01:04:13;;;;;;;4.80;2.40;;;;;;;;;;4992199;28;20026;-74
2023/06/05 01:06:40;;;;;;;4.13;2.53;;;;;;;;;;4991644;28;20065;-75
2023/06/05 01:09:10;;;;;;;3.67;2.10;;;;;;;;;;4991839;28;20038;-74
2023/06/05 01:11:45;;;;;;;3.08;2.15;;;;;;;;;;4974176;28;20026;-74
2023/06/05 01:14:17;;;;;;;3.83;2.17;;;;;;;;;;4974231;28;20065;-75
2023/06/05 01:16:47;;;;;;;2.92;1.95;;;;;;;;;;4974201;28;20030;-74
2023/06/05 01:19:16;;;;;;;7.20;2.50;;;;;;;;;;4990610;28;20372;-75
2023/06/05 01:21:41;;;;;;;4.85;2.55;;;;;;;;;;4973973;28;20121;-75
2023/06/05 01:24:07;;;;;;;6.25;2.40;;;;;;;;;;4974057;28;20117;-76
2023/06/05 01:27:00;;;;;;;3.22;2.15;;;;;;;;;;4973901;28;20041;-74
2023/06/05 01:29:37;;;;;;;5.32;2.50;;;;;;;;;;4973899;28;20478;-75
2023/06/05 01:32:15;;;;;;;2.38;2.13;;;;;;;;;;4991412;28;20128;-76
2023/06/05 01:34:44;;;;;;;3.20;2.13;;;;;;;;;;4990432;28;20038;-74
2023/06/05 01:37:14;;;;;;;5.70;2.65;;;;;;;;;;4991147;28;20022;-75
2023/06/05 01:39:41;;;;;;;3.97;2.40;;;;;;;;;;4990865;28;20030;-75
2023/06/05 01:42:08;;;;;;;4.18;2.38;;;;;;;;;;4973459;28;20025;-75
2023/06/05 01:44:34;;;;;;;4.32;2.83;;;;;;;;;;4973153;28;20037;-74
2023/06/05 01:47:01;;;;;;;3.83;2.45;;;;;;;;;;4990887;28;20030;-75
2023/06/05 01:49:26;;;;;;;6.15;2.55;;;;;;;;;;4989625;28;20034;-74
2023/06/05 01:51:54;;;;;;;3.30;2.50;;;;;;;;;;4973464;28;20036;-75
2023/06/05 01:54:23;;;;;;;4.85;2.20;;;;;;;;;;4973472;28;20038;-75
2023/06/05 01:56:49;;;;;;;6.75;2.50;;;;;;;;;;4973133;28;20030;-75
2023/06/05 01:59:15;;;;;;;4.65;2.38;;;;;;;;;;4957774;28;20066;-75
2023/06/05 02:01:44;;;;;;;6.28;2.33;;;;;;;;;;4949755;28;20051;-75
2023/06/05 02:04:10;;;;;;;3.10;1.92;;;;;;;;;;4951977;28;20031;-74
2023/06/05 02:06:44;;;;;;;6.53;2.97;;;;;;;;;;4950497;29;20062;-75
2023/06/05 02:09:10;;;;;;;7.22;2.65;;;;;;;;;;4950579;29;20061;-75
2023/06/05 02:11:42;;;;;;;3.20;2.20;;;;;;;;;;4950439;29;20476;-75
2023/06/05 02:14:08;;;;;;;3.22;2.28;;;;;;;;;;4952238;29;20688;-75
2023/06/05 02:16:36;;;;;;;5.85;2.25;;;;;;;;;;4950806;29;20121;-75
2023/06/05 02:19:03;;;;;;;6.45;2.70;;;;;;;;;;4950956;29;20064;-75
2023/06/05 02:21:33;;;;;;;3.72;2.45;;;;;;;;;;4950956;29;20528;-75
2023/06/05 02:24:07;;;;;;;6.30;2.28;;;;;;;;;;4951975;28;20047;-75
2023/06/05 02:26:33;;;;;;;5.30;2.97;;;;;;;;;;4952452;28;20019;-75
2023/06/05 02:28:59;;;;;;;4.63;2.35;;;;;;;;;;4951630;29;20117;-75
2023/06/05 02:31:25;;;;;;;3.25;2.22;;;;;;;;;;4952141;29;20057;-76
2023/06/05 02:33:55;;;;;;;7.68;2.50;;;;;;;;;;4954251;28;20062;-76
2023/06/05 02:36:23;;;;;;;3.60;2.55;;;;;;;;;;4952603;29;20027;-75
2023/06/05 02:38:49;;;;;;;20.33;4.50;;;;;;;;;;4953724;29;20031;-74
2023/06/05 02:41:19;;;;;;;4.07;3.10;;;;;;;;;;4953529;28;20039;-75
2023/06/05 02:43:44;;;;;;;3.08;2.00;;;;;;;;;;4951462;29;20166;-74
2023/06/05 02:46:10;;;;;;;6.18;2.65;;;;;;;;;;4952731;28;20690;-75
2023/06/05 02:48:36;;;;;;;5.63;2.60;;;;;;;;;;4952874;28;20038;-75
2023/06/05 02:51:03;;;;;;;3.30;2.15;;;;;;;;;;4950420;29;20027;-75
2023/06/05 02:53:29;;;;;;;14.63;3.78;;;;;;;;;;4952630;29;20023;-75
2023/06/05 02:55:59;;;;;;;9.98;3.05;;;;;;;;;;4954771;28;20605;-75
2023/06/05 02:58:24;;;;;;;8.98;2.92;;;;;;;;;;4975598;28;20066;-75
2023/06/05 03:00:50;;;;;;;5.57;2.60;;;;;;;;;;4984508;28;20062;-75
2023/06/05 03:03:16;;;;;;;4.65;2.70;;;;;;;;;;4971075;28;20023;-73
2023/06/05 03:05:44;;;;;;;6.50;2.92;;;;;;;;;;4970694;28;20045;-75
2023/06/05 03:08:10;;;;;;;3.17;2.58;;;;;;;;;;4971080;28;20204;-75
2023/06/05 03:10:36;;;;;;;4.47;2.70;;;;;;;;;;4971004;28;20041;-74
2023/06/05 03:13:06;;;;;;;9.70;3.03;;;;;;;;;;4973361;28;20395;-75
2023/06/05 03:15:32;;;;;;;5.03;2.88;;;;;;;;;;4975379;28;20042;-75
2023/06/05 03:17:57;;;;;;;9.77;4.03;;;;;;;;;;4975332;28;20175;-75
2023/06/05 03:20:23;;;;;;;7.53;3.35;;;;;;;;;;4976311;28;20035;-75
2023/06/05 03:22:49;;;;;;;9.90;3.70;;;;;;;;;;4975809;28;20117;-75
2023/06/05 03:25:14;;;;;;;14.10;3.70;;;;;;;;;;4975974;28;20023;-75
2023/06/05 03:27:41;;;;;;;4.07;2.67;;;;;;;;;;4977038;28;20325;-74
2023/06/05 03:30:08;;;;;;;7.05;3.80;;;;;;;;;;4979208;28;20077;-75
2023/06/05 03:32:34;;;;;;;5.35;3.05;;;;;;;;;;4980695;28;20101;-75
2023/06/05 03:34:59;;;;;;;8.80;2.67;;;;;;;;;;4980081;28;20062;-73
2023/06/05 03:37:25;;;;;;;4.97;2.70;;;;;;;;;;4973090;28;20457;-76
2023/06/05 03:39:51;;;;;;;7.95;3.92;;;;;;;;;;4972290;28;20027;-76
2023/06/05 03:42:16;;;;;;;5.13;2.45;;;;;;;;;;4988994;28;20062;-73
2023/06/05 03:44:42;;;;;;;6.55;3.15;;;;;;;;;;4956340;28;20805;-75
2023/06/05 03:47:07;;;;;;;7.90;2.90;;;;;;;;;;4974094;28;20391;-75
2023/06/05 03:49:33;;;;;;;7.80;3.25;;;;;;;;;;4972768;28;20037;-75
2023/06/05 03:52:03;;;;;;;9.60;3.17;;;;;;;;;;4972699;28;20042;-75
2023/06/05 03:54:32;;;;;;;6.53;2.85;;;;;;;;;;4974534;28;20027;-74
2023/06/05 03:57:00;;;;;;;7.72;2.97;;;;;;;;;;4974534;28;20027;-75
2023/06/05 03:59:27;;;;;;;10.63;2.92;;;;;;;;;;4973190;28;20137;-76
2023/06/05 04:01:53;;;;;;;8.77;2.80;;;;;;;;;;4974457;28;20085;-75
2023/06/05 04:04:20;;;;;;;4.43;2.60;;;;;;;;;;4973223;28;20039;-75
2023/06/05 04:06:46;;;;;;;5.53;2.75;;;;;;;;;;4973526;28;20478;-75
2023/06/05 04:09:12;;;;;;;6.57;3.10;;;;;;;;;;4974279;28;20031;-76
2023/06/05 04:11:42;;;;;;;15.52;3.05;;;;;;;;;;4973530;28;20038;-75
2023/06/05 04:14:09;;;;;;;14.82;3.60;;;;;;;;;;4972292;28;20729;-75
2023/06/05 04:16:38;;;;;;;6.40;3.00;;;;;;;;;;4973356;28;20019;-75
2023/06/05 04:19:06;;;;;;;6.28;2.95;;;;;;;;;;4971395;28;20566;-75
2023/06/05 04:21:34;;;;;;;9.63;3.80;;;;;;;;;;4971734;28;20475;-75
2023/06/05 04:23:59;;;;;;;9.50;3.38;;;;;;;;;;4972026;28;20027;-75
2023/06/05 04:26:26;;;;;;;8.65;3.30;;;;;;;;;;4971544;28;20031;-74
2023/06/05 04:28:51;;;;;;;5.75;2.78;;;;;;;;;;4972950;28;20062;-74
2023/06/05 04:31:17;;;;;;;9.05;3.97;;;;;;;;;;4971467;28;20030;-74
2023/06/05 04:33:43;;;;;;;10.23;4.47;;;;;;;;;;4971826;28;20093;-73
2023/06/05 04:36:08;;;;;;;9.23;3.20;;;;;;;;;;4971709;28;20069;-75
2023/06/05 04:38:34;;;;;;;5.47;2.90;;;;;;;;;;4973454;28;20118;-76
2023/06/05 04:41:01;;;;;;;8.93;3.15;;;;;;;;;;4973220;28;20038;-76
2023/06/05 04:43:27;;;;;;;6.88;2.75;;;;;;;;;;4971993;28;20037;-76
2023/06/05 04:45:53;;;;;;;8.55;3.33;;;;;;;;;;4971562;28;20027;-75
2023/06/05 04:48:19;;;;;;;11.02;4.35;;;;;;;;;;4973401;28;20027;-75
2023/06/05 04:50:45;;;;;;;7.10;3.10;;;;;;;;;;4971317;28;20448;-75
2023/06/05 04:53:10;;;;;;;8.68;3.10;;;;;;;;;;4973181;28;20035;-74
2023/06/05 04:55:36;;;;;;;8.10;3.65;;;;;;;;;;4973329;28;20050;-74
2023/06/05 04:58:04;;;;;;;9.57;3.00;;;;;;;;;;4974508;28;20070;-74
2023/06/05 05:00:29;;;;;;;16.10;4.20;;;;;;;;;;4975683;28;20181;-75
2023/06/05 05:02:55;;;;;;;6.75;3.50;;;;;;;;;;4994550;28;20479;-76
2023/06/05 05:05:20;;;;;;;12.20;3.95;;;;;;;;;;4993530;28;20741;-76
2023/06/05 05:07:46;;;;;;;10.48;4.18;;;;;;;;;;5011058;28;20515;-75
2023/06/05 05:10:14;;;;;;;13.23;4.60;;;;;;;;;;4994401;28;20451;-75
2023/06/05 05:12:39;;;;;;;23.88;5.88;;;;;;;;;;4993954;28;20045;-75
2023/06/05 05:15:06;;;;;;;10.90;4.50;;;;;;;;;;5011023;28;20041;-75
2023/06/05 05:17:31;;;;;;;10.45;4.40;;;;;;;;;;5000755;28;20124;-74
2023/06/05 05:19:57;;;;;;;9.80;4.60;;;;;;;;;;5009815;28;20121;-73
2023/06/05 05:22:23;;;;;;;9.00;3.78;;;;;;;;;;5007614;28;20049;-74
2023/06/05 05:24:49;;;;;;;8.55;3.65;;;;;;;;;;5001494;28;20041;-73
2023/06/05 05:27:24;;;;;;;11.35;4.97;;;;;;;;;;4987988;28;20121;-75
2023/06/05 05:29:51;;;;;;;9.05;4.75;;;;;;;;;;4996667;28;20048;-74
2023/06/05 05:32:17;;;;;;;10.07;4.40;;;;;;;;;;5011903;28;20049;-74
2023/06/05 05:34:43;;;;;;;10.13;4.63;;;;;;;;;;5011660;28;20121;-74
2023/06/05 05:37:08;;;;;;;11.25;4.60;;;;;;;;;;4995125;28;20133;-74
2023/06/05 05:39:34;;;;;;;15.40;6.13;;;;;;;;;;5006811;28;20101;-74
2023/06/05 05:42:01;;;;;;;12.40;5.95;;;;;;;;;;4992065;28;20069;-73
2023/06/05 05:44:27;;;;;;;10.57;4.57;;;;;;;;;;4986831;28;20038;-73
2023/06/05 05:46:52;;;;;;;15.93;5.28;;;;;;;;;;4991407;28;20065;-74
2023/06/05 05:49:17;;;;;;;19.55;5.75;;;;;;;;;;4983862;28;20069;-75
2023/06/05 05:51:43;;;;;;;15.15;4.95;;;;;;;;;;5005708;28;20034;-74
2023/06/05 05:54:10;;;;;;;13.48;7.35;;;;;;;;;;5004150;28;20041;-74
2023/06/05 05:56:37;;;;;;;11.55;4.72;;;;;;;;;;5003128;28;20037;-75
2023/06/05 05:59:03;;;;;;;13.90;5.47;;;;;;;;;;4988410;28;20760;-74
2023/06/05 06:01:29;;;;;;;10.82;5.05;;;;;;;;;;4979096;28;20036;-74
2023/06/05 06:03:54;;;;;;;15.82;6.13;;;;;;;;;;5001015;28;20038;-73
2023/06/05 06:06:20;;;;;;;13.70;5.20;;;;;;;;;;5004751;28;20034;-74
2023/06/05 06:08:46;;;;;;;8.75;5.00;;;;;;;;;;5007356;28;20644;-73
2023/06/05 06:11:12;;;;;;;16.08;5.53;;;;;;;;;;4987512;28;20041;-74
2023/06/05 06:13:37;;;;;;;12.90;5.50;;;;;;;;;;5005165;28;20029;-75
2023/06/05 06:16:03;;;;;;;10.32;4.55;;;;;;;;;;5010262;28;20389;-76
2023/06/05 06:18:28;;;;;;;12.75;5.90;;;;;;;;;;5000336;28;20038;-74
2023/06/05 06:20:55;;;;;;;5.97;4.63;;;;;;;;;;5006940;28;20032;-75
2023/06/05 06:23:20;;;;;;;15.30;5.05;;;;;;;;;;4999085;28;20041;-73
2023/06/05 06:25:46;;;;;;;11.38;5.10;;;;;;;;;;4985120;28;20037;-73
2023/06/05 06:28:12;;;;;;;10.52;5.60;;;;;;;;;;5006863;28;20040;-74
2023/06/05 06:30:38;;;;;;;9.55;5.18;;;;;;;;;;5004402;28;20029;-74
2023/06/05 06:33:05;;;;;;;13.65;5.88;;;;;;;;;;5006190;28;20064;-74
2023/06/05 06:35:34;;;;;;;9.90;5.07;;;;;;;;;;5001040;28;20084;-75
2023/06/05 06:38:01;;;;;;;19.60;5.72;;;;;;;;;;4983315;28;20083;-75
2023/06/05 06:40:28;;;;;;;12.80;4.95;;;;;;;;;;4985298;28;20513;-74
2023/06/05 06:42:55;;;;;;;15.02;5.20;;;;;;;;;;4981110;28;20048;-74
2023/06/05 06:45:21;;;;;;;10.40;4.60;;;;;;;;;;4980204;28;20038;-73
2023/06/05 06:47:47;;;;;;;9.80;5.22;;;;;;;;;;4968986;28;20045;-73
2023/06/05 06:50:14;;;;;;;13.48;5.75;;;;;;;;;;5004040;28;20765;-75
2023/06/05 06:52:39;;;;;;;7.50;5.18;;;;;;;;;;4980224;28;20035;-73
2023/06/05 06:55:06;;;;;;;11.30;4.70;;;;;;;;;;4997679;28;20493;-76
2023/06/05 06:57:32;;;;;;;13.85;5.35;;;;;;;;;;4998077;28;20045;-75
2023/06/05 06:59:57;;;;;;;15.70;5.22;;;;;;;;;;4988763;28;20054;-75
2023/06/05 07:02:29;;;;;;;20.42;6.03;;;;;;;;;;4986972;28;21109;-75
2023/06/05 07:04:55;;;;;;;14.18;7.78;;;;;;;;;;5004231;28;20030;-74
2023/06/05 07:07:24;;;;;;;14.23;5.85;;;;;;;;;;5006691;28;20448;-74
2023/06/05 07:09:53;;;;;;;13.52;5.90;;;;;;;;;;5012989;28;20052;-75
2023/06/05 07:12:20;;;;;;;14.95;4.57;;;;;;;;;;4978127;28;20057;-75
2023/06/05 07:14:47;;;;;;;10.77;4.28;;;;;;;;;;4982564;28;20034;-74
2023/06/05 07:17:13;;;;;;;11.70;3.85;;;;;;;;;;4996395;28;20049;-77
2023/06/05 07:19:39;;;;;;;5.82;4.20;;;;;;;;;;4982591;28;20062;-75
2023/06/05 07:22:06;;;;;;;8.45;3.63;;;;;;;;;;4977237;28;20077;-74
2023/06/05 07:24:32;;;;;;;7.25;4.00;;;;;;;;;;4998637;28;20028;-76
2023/06/05 07:27:03;;;;;;;8.02;4.57;;;;;;;;;;5002936;28;20506;-76
2023/06/05 07:29:29;;;;;;;8.77;3.63;;;;;;;;;;4998208;28;20037;-74
2023/06/05 07:31:57;;;;;;;8.63;3.83;;;;;;;;;;4979414;28;20500;-75
2023/06/05 07:34:26;;;;;;;5.22;3.10;;;;;;;;;;4978986;28;20046;-75
2023/06/05 07:36:52;;;;;;;7.82;4.15;;;;;;;;;;5001035;28;20110;-76
2023/06/05 07:39:20;;;;;;;7.32;3.00;;;;;;;;;;4984167;28;20036;-74
2023/06/05 07:41:45;;;;;;;10.75;3.45;;;;;;;;;;5006074;28;20033;-73
2023/06/05 07:44:15;;;;;;;13.73;3.17;;;;;;;;;;4985282;28;20375;-75
2023/06/05 07:46:43;;;;;;;5.65;2.97;;;;;;;;;;4985093;28;20056;-76
2023/06/05 07:49:09;;;;;;;11.20;3.88;;;;;;;;;;5004513;28;20076;-75
2023/06/05 07:51:38;;;;;;;5.32;3.08;;;;;;;;;;4989487;28;20045;-74
2023/06/05 07:54:06;;;;;;;10.05;3.25;;;;;;;;;;5016240;28;20043;-75
2023/06/05 07:56:33;;;;;;;5.80;2.75;;;;;;;;;;4994030;28;20057;-73
2023/06/05 07:59:02;;;;;;;7.78;2.83;;;;;;;;;;4983841;28;20065;-76
2023/06/05 08:01:29;;;;;;;6.40;3.28;;;;;;;;;;4997485;28;20038;-75
2023/06/05 08:04:07;;;;;;;9.80;3.30;;;;;;;;;;5001685;28;20034;-75
2023/06/05 08:06:33;;;;;;;8.60;3.17;;;;;;;;;;4998406;28;20092;-76
2023/06/05 08:09:01;;;;;;;8.68;3.72;;;;;;;;;;4984539;28;20546;-74
2023/06/05 08:11:28;;;;;;;4.38;2.97;;;;;;;;;;4986025;28;20453;-74
2023/06/05 08:13:57;;;;;;;8.15;3.47;;;;;;;;;;5000636;28;20034;-74
2023/06/05 08:16:22;;;;;;;10.45;3.80;;;;;;;;;;4988174;28;20029;-73
2023/06/05 08:18:48;;;;;;;10.18;3.28;;;;;;;;;;4989673;28;20084;-76
2023/06/05 08:21:14;;;;;;;9.88;3.15;;;;;;;;;;5002973;28;20052;-74
2023/06/05 08:23:39;;;;;;;6.72;2.80;;;;;;;;;;4986202;28;20022;-75
2023/06/05 08:26:11;;;;;;;12.18;3.22;;;;;;;;;;5002860;28;20021;-76
2023/06/05 08:28:41;;;;;;;11.75;3.45;;;;;;;;;;4999935;28;20080;-76
2023/06/05 08:31:07;;;;;;;8.80;3.25;;;;;;;;;;4984825;28;20044;-76
2023/06/05 08:33:35;;;;;;;6.80;3.00;;;;;;;;;;4985611;28;20036;-77
2023/06/05 08:36:01;;;;;;;6.03;3.15;;;;;;;;;;4995696;28;20037;-76
2023/06/05 08:38:27;;;;;;;6.05;3.00;;;;;;;;;;4989437;28;20030;-74
2023/06/05 08:41:01;;;;;;;7.80;3.10;;;;;;;;;;4988875;28;20038;-77
2023/06/05 08:43:28;;;;;;;11.38;3.45;;;;;;;;;;5002667;28;20052;-75
2023/06/05 08:45:58;;;;;;;6.82;3.13;;;;;;;;;;4984652;28;20120;-77
2023/06/05 08:48:53;;;;;;;6.90;2.88;;;;;;;;;;4985615;28;20569;-75
2023/06/05 08:51:20;;;;;;;7.72;2.92;;;;;;;;;;5003613;28;20026;-76
2023/06/05 08:53:56;;;;;;;10.80;3.60;;;;;;;;;;5000356;28;20033;-74
2023/06/05 08:56:23;;;;;;;20.00;3.83;;;;;;;;;;4982505;28;20045;-75
2023/06/05 08:58:49;;;;;;;8.60;4.53;;;;;;;;;;4982411;28;20057;-75
2023/06/05 09:01:17;;;;;;;10.18;4.07;;;;;;;;;;4997073;28;20037;-74
2023/06/05 09:03:52;;;;;;;14.32;4.55;;;;;;;;;;4980850;28;20041;-76
2023/06/05 09:06:18;;;;;;;9.65;3.65;;;;;;;;;;4983187;28;20034;-75
2023/06/05 09:08:44;;;;;;;4.75;3.17;;;;;;;;;;4987249;28;20022;-74
2023/06/05 09:11:29;;;;;;;127.82;11.65;;;;;;;;;;4990807;28;20057;-74
2023/06/05 09:13:59;;;;;;;8.55;3.40;;;;;;;;;;4999587;28;20033;-75
2023/06/05 09:16:37;;;;;;;12.77;3.67;;;;;;;;;;4987088;28;20029;-75
2023/06/05 09:19:04;;;;;;;7.43;3.85;;;;;;;;;;4998277;28;20539;-77
2023/06/05 09:21:32;;;;;;;11.70;3.67;;;;;;;;;;4984462;28;20107;-74
2023/06/05 09:24:17;;;;;;;9.55;3.78;;;;;;;;;;5001889;28;20393;-73
2023/06/05 09:27:02;;;;;;;5.38;3.17;;;;;;;;;;5001016;28;21109;-75
2023/06/05 09:29:28;;;;;;;9.23;3.67;;;;;;;;;;4981336;28;20108;-71
2023/06/05 09:32:01;;;;;;;5.63;3.22;;;;;;;;;;4975918;28;20590;-74
2023/06/05 09:34:32;;;;;;;10.02;4.10;;;;;;;;;;4986618;28;20040;-76
2023/06/05 09:37:03;;;;;;;14.52;4.13;;;;;;;;;;4982295;28;20501;-72
2023/06/05 09:39:30;;;;;;;5.28;3.25;;;;;;;;;;5000503;28;20127;-75
2023/06/05 09:41:57;;;;;;;12.90;5.05;;;;;;;;;;4968397;28;20038;-76
2023/06/05 09:44:36;;;;;;;5.43;3.00;;;;;;;;;;4976019;28;20057;-74
2023/06/05 09:47:08;;;;;;;7.10;3.92;;;;;;;;;;4983161;28;20501;-76
2023/06/05 09:49:40;;;;;;;12.98;3.70;;;;;;;;;;5002097;28;20099;-76
2023/06/05 09:52:09;;;;;;;9.82;3.63;;;;;;;;;;4975250;28;20068;-74
2023/06/05 09:54:37;;;;;;;15.02;3.72;;;;;;;;;;4996418;28;20042;-75
2023/06/05 09:57:04;;;;;;;14.23;4.30;;;;;;;;;;4983730;28;20088;-72
2023/06/05 09:59:59;;;;;;;5.47;3.67;;;;;;;;;;4964468;28;20158;-73
2023/06/05 10:02:35;;;;;;;6.85;3.63;;;;;;;;;;4950004;28;20107;-74
2023/06/05 10:05:04;;;;;;;12.57;3.40;;;;;;;;;;4956811;28;20038;-75
2023/06/05 10:07:35;;;;;;;7.28;3.20;;;;;;;;;;4942815;28;20432;-74
2023/06/05 10:10:01;;;;;;;;;;;;;;;;;;4939039;28;20033;-76
2023/06/05 10:12:27;;;;;;;8.35;3.05;;;;;;;;;;4957124;28;19918;-73
2023/06/05 10:14:55;;;;;;;7.05;3.53;;;;;;;;;;4974463;28;20042;-74
2023/06/05 10:17:21;;;;;;;13.88;3.78;;;;;;;;;;4975480;28;20026;-74
2023/06/05 10:19:47;;;;;;;6.30;3.10;;;;;;;;;;4958857;28;20093;-73
2023/06/05 10:22:13;;;;;;;6.20;3.42;;;;;;;;;;4958341;28;20031;-74
2023/06/05 10:24:47;;;;;;;11.95;3.17;;;;;;;;;;4955626;28;20038;-75
2023/06/05 10:27:31;;;;;;;10.43;4.55;;;;;;;;;;4962144;28;20043;-74
2023/06/05 10:30:21;;;;;;;10.32;3.38;;;;;;;;;;4954600;28;20061;-74
2023/06/05 10:33:35;;;;;;;6.05;3.15;;;;;;;;;;4954295;28;20050;-75
2023/06/05 10:36:28;;;;;;;13.02;3.50;;;;;;;;;;4949045;28;20062;-76
2023/06/05 10:38:55;;;;;;;9.13;3.55;;;;;;;;;;4962867;28;20158;-75
2023/06/05 10:41:22;;;;;;;6.88;2.95;;;;;;;;;;4951089;28;20041;-74
2023/06/05 10:43:55;;;;;;;6.40;3.65;;;;;;;;;;4954086;28;20062;-73
2023/06/05 10:46:27;;;;;;;8.30;4.97;;;;;;;;;;4956166;28;20209;-75
2023/06/05 10:49:07;;;;;;;15.65;4.18;;;;;;;;;;4955223;28;20069;-74
2023/06/05 10:51:46;;;;;;;7.80;5.38;;;;;;;;;;4951156;28;20030;-74
2023/06/05 10:54:32;;;;;;;4.60;3.20;;;;;;;;;;4948716;28;20066;-74
2023/06/05 10:57:01;;;;;;;8.18;3.28;;;;;;;;;;4932273;28;20129;-74
2023/06/05 10:59:38;;;;;;;6.47;3.35;;;;;;;;;;4983783;28;20042;-72
2023/06/05 11:02:16;;;;;;;6.30;2.90;;;;;;;;;;4983323;28;20041;-72
2023/06/05 11:05:04;;;;;;;9.02;4.05;;;;;;;;;;4991297;28;20034;-74
2023/06/05 11:07:30;;;;;;;6.65;3.35;;;;;;;;;;4991963;28;20067;-76
2023/06/05 11:10:17;;;;;;;18.50;4.13;;;;;;;;;;4976743;28;20099;-72
2023/06/05 11:12:43;;;;;;;16.83;5.43;;;;;;;;;;4982979;28;20996;-74
2023/06/05 11:15:12;;;;;;;5.63;2.90;;;;;;;;;;4982102;28;20034;-73
2023/06/05 11:17:49;;;;;;;7.00;3.28;;;;;;;;;;4990088;28;20029;-75
2023/06/05 11:20:23;;;;;;;7.43;3.20;;;;;;;;;;4977381;28;20185;-75
2023/06/05 11:22:52;;;;;;;7.05;3.63;;;;;;;;;;4974478;28;21318;-74
2023/06/05 11:25:18;;;;;;;13.55;4.00;;;;;;;;;;4985006;28;20113;-74
2023/06/05 11:27:50;;;;;;;9.05;3.33;;;;;;;;;;4997314;28;20136;-75
2023/06/05 11:30:20;;;;;;;7.65;3.75;;;;;;;;;;4979527;28;20034;-74
2023/06/05 11:32:46;;;;;;;7.68;3.63;;;;;;;;;;4977688;28;20058;-74
2023/06/05 11:35:12;;;;;;;6.07;3.75;;;;;;;;;;4974857;28;20118;-74
2023/06/05 11:37:41;;;;;;;9.77;4.05;;;;;;;;;;4998349;28;20459;-75
2023/06/05 11:40:11;;;;;;;9.70;3.83;;;;;;;;;;4997336;28;20474;-76
2023/06/05 11:42:40;;;;;;;7.15;3.67;;;;;;;;;;4974486;28;20823;-75
2023/06/05 11:45:12;;;;;;;7.50;4.22;;;;;;;;;;4983971;28;20041;-74
2023/06/05 11:47:38;;;;;;;14.60;4.85;;;;;;;;;;5002448;28;20030;-76
2023/06/05 11:50:09;;;;;;;10.75;4.50;;;;;;;;;;5003669;28;20168;-75
2023/06/05 11:52:36;;;;;;;10.50;5.18;;;;;;;;;;4974555;28;20040;-74
2023/06/05 11:55:19;;;;;;;14.55;5.45;;;;;;;;;;4983057;28;20030;-75
2023/06/05 11:57:51;;;;;;;10.30;4.70;;;;;;;;;;4996871;28;20140;-78
2023/06/05 12:00:23;;;;;;;10.85;5.50;;;;;;;;;;4981954;28;20037;-77
2023/06/05 12:02:49;;;;;;;15.65;7.35;;;;;;;;;;4984451;28;20025;-75
2023/06/05 12:05:16;;;;;;;15.00;6.35;;;;;;;;;;5013967;28;20656;-75
2023/06/05 12:07:42;;;;;;;12.82;6.10;;;;;;;;;;4998793;28;20033;-75
2023/06/05 12:10:09;;;;;;;9.98;5.50;;;;;;;;;;5018877;28;20060;-74
2023/06/05 12:12:50;;;;;;;11.77;6.07;;;;;;;;;;4999964;28;20140;-74
2023/06/05 12:15:20;;;;;;;15.32;6.75;;;;;;;;;;4999764;28;20084;-76
2023/06/05 12:17:53;;;;;;;13.98;6.28;;;;;;;;;;5007396;28;20122;-75
2023/06/05 12:20:19;;;;;;;15.88;7.75;;;;;;;;;;4989710;28;20030;-74
2023/06/05 12:22:47;;;;;;;11.02;7.15;;;;;;;;;;4981319;28;20038;-74
2023/06/05 12:25:22;;;;;;;11.00;6.50;;;;;;;;;;4980770;28;20104;-75
2023/06/05 12:27:49;;;;;;;14.77;7.53;;;;;;;;;;5006462;28;20033;-76
2023/06/05 12:30:18;;;;;;;12.55;7.05;;;;;;;;;;5004684;28;20034;-77
2023/06/05 12:32:48;;;;;;;18.90;8.05;;;;;;;;;;4980257;28;20034;-75
2023/06/05 12:35:22;;;;;;;12.95;7.25;;;;;;;;;;5005420;28;20088;-75
2023/06/05 12:38:00;;;;;;;12.13;7.32;;;;;;;;;;5001936;28;20033;-76
2023/06/05 12:40:25;;;;;;;14.30;7.35;;;;;;;;;;4990032;28;20022;-77
2023/06/05 12:42:51;;;;;;;13.57;7.72;;;;;;;;;;4983851;28;20037;-76
2023/06/05 12:45:17;;;;;;;12.40;7.30;;;;;;;;;;4986006;28;20038;-75
2023/06/05 12:47:43;;;;;;;15.85;8.00;;;;;;;;;;5012782;28;20126;-74
2023/06/05 12:50:13;;;;;;;17.80;7.28;;;;;;;;;;4993551;28;20056;-76
2023/06/05 12:52:42;;;;;;;15.27;7.43;;;;;;;;;;4986553;28;20034;-76
2023/06/05 12:55:09;;;;;;;9.23;7.00;;;;;;;;;;5005647;28;20037;-77
2023/06/05 12:57:34;;;;;;;15.45;8.13;;;;;;;;;;4988943;28;20042;-76
2023/06/05 13:00:13;;;;;;;16.42;10.25;;;;;;;;;;5008060;28;20669;-75
2023/06/05 13:02:47;;;;;;;11.35;7.85;;;;;;;;;;4966325;28;20042;-74
2023/06/05 13:05:15;;;;;;;12.45;8.32;;;;;;;;;;4987941;28;20122;-75
2023/06/05 13:07:41;;;;;;;16.15;8.40;;;;;;;;;;4988283;28;20206;-76
2023/06/05 13:10:11;;;;;;;12.63;8.07;;;;;;;;;;5009415;28;20319;-77
2023/06/05 13:12:38;;;;;;;16.23;9.32;;;;;;;;;;4985730;28;20045;-75
2023/06/05 13:15:06;;;;;;;11.98;6.97;;;;;;;;;;5005017;28;20038;-74
2023/06/05 13:17:35;;;;;;;13.27;7.43;;;;;;;;;;4990408;28;20088;-76
2023/06/05 13:20:03;;;;;;;10.82;8.15;;;;;;;;;;4985184;28;20034;-76
2023/06/05 13:22:29;;;;;;;15.45;8.40;;;;;;;;;;4983223;28;20033;-76
2023/06/05 13:24:54;;;;;;;13.02;8.15;;;;;;;;;;4999438;28;20117;-75
2023/06/05 13:27:20;;;;;;;19.30;9.23;;;;;;;;;;5001056;28;20072;-75
2023/06/05 13:29:46;;;;;;;24.63;10.57;;;;;;;;;;4982010;28;20071;-77
2023/06/05 13:32:15;;;;;;;16.05;8.70;;;;;;;;;;4985022;28;20421;-77
2023/06/05 13:34:43;;;;;;;13.82;8.10;;;;;;;;;;5001828;28;20633;-76
2023/06/05 13:37:08;;;;;;;18.35;11.23;;;;;;;;;;4998343;28;20036;-77
2023/06/05 13:39:36;;;;;;;17.13;9.68;;;;;;;;;;4989731;28;20052;-75
2023/06/05 13:42:02;;;;;;;15.70;9.07;;;;;;;;;;4998861;28;20312;-76
2023/06/05 13:44:29;;;;;;;13.80;9.25;;;;;;;;;;4998130;28;20030;-74
2023/06/05 13:46:55;;;;;;;14.38;8.75;;;;;;;;;;4982110;28;20085;-74
2023/06/05 13:49:21;;;;;;;16.20;9.93;;;;;;;;;;4989643;28;20148;-74
2023/06/05 13:51:53;;;;;;;14.77;9.40;;;;;;;;;;5003761;28;20049;-75
2023/06/05 13:54:19;;;;;;;17.30;9.02;;;;;;;;;;4984528;28;20033;-73
2023/06/05 13:56:44;;;;;;;15.43;8.30;;;;;;;;;;4986973;28;20032;-75
2023/06/05 13:59:10;;;;;;;12.80;9.27;;;;;;;;;;5005144;28;20120;-77
2023/06/05 14:01:35;;;;;;;19.48;9.98;;;;;;;;;;4986847;28;20033;-75
2023/06/05 14:04:01;;;;;;;13.25;8.35;;;;;;;;;;5003926;28;20029;-74
2023/06/05 14:06:27;;;;;;;17.95;8.63;;;;;;;;;;5002588;28;20056;-76
2023/06/05 14:08:52;;;;;;;16.80;8.77;;;;;;;;;;4988209;28;20045;-76
2023/06/05 14:11:28;;;;;;;;;;;;;;;;;;;;;
2023/06/05 14:13:56;;;;;;;12.90;8.40;;;;;;;;;;5000151;28;20662;-77
2023/06/05 14:16:22;;;;;;;17.63;8.15;;;;;;;;;;5001717;28;20029;-74
2023/06/05 14:18:51;;;;;;;15.57;8.80;;;;;;;;;;5007108;28;20030;-77
2023/06/05 14:21:18;;;;;;;13.73;8.55;;;;;;;;;;5005470;28;20045;-77
2023/06/05 14:23:43;;;;;;;15.30;9.25;;;;;;;;;;4983907;28;20039;-78
2023/06/05 14:26:10;;;;;;;13.10;8.70;;;;;;;;;;4986704;28;20036;-78
2023/06/05 14:28:36;;;;;;;13.93;8.73;;;;;;;;;;5004052;28;20240;-76
2023/06/05 14:31:04;;;;;;;12.82;7.93;;;;;;;;;;5005770;28;20029;-75
2023/06/05 14:33:30;;;;;;;15.30;8.88;;;;;;;;;;5000864;28;20040;-76
2023/06/05 14:35:55;;;;;;;16.08;9.63;;;;;;;;;;5007601;28;20026;-76
2023/06/05 14:38:21;;;;;;;16.63;9.57;;;;;;;;;;4985611;28;20034;-74
2023/06/05 14:40:50;;;;;;;12.68;8.10;;;;;;;;;;4986319;28;20060;-77
2023/06/05 14:43:16;;;;;;;12.00;8.77;;;;;;;;;;4985335;28;20128;-76
2023/06/05 14:45:42;;;;;;;13.45;8.32;;;;;;;;;;5004926;28;20140;-76